sensor_id;sensor_type;location;lat;lon;timestamp;P1;durP1;ratioP1;P2;durP2;ratioP2
5704;SDS011;2877;48.238;11.160;2023-05-07T00:01:43;4.80;;;3.67;;
5704;SDS011;2877;48.238;11.160;2023-05-07T00:04:09;4.13;;;3.80;;
5704;SDS011;2877;48.238;11.160;2023-05-07T00:06:35;9.27;;;3.77;;
5704;SDS011;2877;48.238;11.160;2023-05-07T00:09:01;4.00;;;3.70;;
5704;SDS011;2877;48.238;11.160;2023-05-07T00:11:27;3.93;;;3.63;;
5704;SDS011;2877;48.238;11.160;2023-05-07T00:13:53;4.50;;;4.13;;
5704;SDS011;2877;48.238;11.160;2023-05-07T00:16:19;5.03;;;4.07;;
5704;SDS011;2877;48.238;11.160;2023-05-07T00:18:44;3.70;;;3.40;;
5704;SDS011;2877;48.238;11.160;2023-05-07T00:21:10;4.30;;;3.90;;
5704;SDS011;2877;48.238;11.160;2023-05-07T00:23:36;4.37;;;3.97;;
5704;SDS011;2877;48.238;11.160;2023-05-07T00:26:02;5.57;;;3.60;;
5704;SDS011;2877;48.238;11.160;2023-05-07T00:28:28;7.00;;;3.70;;
5704;SDS011;2877;48.238;11.160;2023-05-07T00:30:54;5.63;;;3.90;;
5704;SDS011;2877;48.238;11.160;2023-05-07T00:33:19;4.00;;;3.70;;
5704;SDS011;2877;48.238;11.160;2023-05-07T00:35:45;4.17;;;3.80;;
5704;SDS011;2877;48.238;11.160;2023-05-07T00:38:11;3.97;;;3.67;;
5704;SDS011;2877;48.238;11.160;2023-05-07T00:40:37;4.60;;;4.20;;
5704;SDS011;2877;48.238;11.160;2023-05-07T00:43:02;4.20;;;3.80;;
5704;SDS011;2877;48.238;11.160;2023-05-07T00:45:28;5.63;;;4.20;;
5704;SDS011;2877;48.238;11.160;2023-05-07T00:47:55;4.27;;;3.97;;
5704;SDS011;2877;48.238;11.160;2023-05-07T00:50:22;4.20;;;3.80;;
5704;SDS011;2877;48.238;11.160;2023-05-07T00:52:48;4.43;;;4.03;;
5704;SDS011;2877;48.238;11.160;2023-05-07T00:55:13;4.00;;;3.70;;
5704;SDS011;2877;48.238;11.160;2023-05-07T00:57:39;9.07;;;4.20;;
5704;SDS011;2877;48.238;11.160;2023-05-07T01:00:06;4.27;;;3.97;;
5704;SDS011;2877;48.238;11.160;2023-05-07T01:02:34;4.30;;;3.77;;
5704;SDS011;2877;48.238;11.160;2023-05-07T01:05:01;5.70;;;3.80;;
5704;SDS011;2877;48.238;11.160;2023-05-07T01:07:29;5.43;;;3.97;;
5704;SDS011;2877;48.238;11.160;2023-05-07T01:09:55;5.60;;;3.63;;
5704;SDS011;2877;48.238;11.160;2023-05-07T01:12:21;5.00;;;3.77;;
5704;SDS011;2877;48.238;11.160;2023-05-07T01:14:48;4.60;;;4.20;;
5704;SDS011;2877;48.238;11.160;2023-05-07T01:17:14;4.23;;;3.87;;
5704;SDS011;2877;48.238;11.160;2023-05-07T01:19:40;6.27;;;4.47;;
5704;SDS011;2877;48.238;11.160;2023-05-07T01:22:09;5.73;;;4.50;;
5704;SDS011;2877;48.238;11.160;2023-05-07T01:24:40;4.97;;;4.27;;
5704;SDS011;2877;48.238;11.160;2023-05-07T01:27:07;4.90;;;4.40;;
5704;SDS011;2877;48.238;11.160;2023-05-07T01:29:32;4.57;;;4.17;;
5704;SDS011;2877;48.238;11.160;2023-05-07T01:31:59;4.87;;;4.47;;
5704;SDS011;2877;48.238;11.160;2023-05-07T01:34:25;9.40;;;4.87;;
5704;SDS011;2877;48.238;11.160;2023-05-07T01:36:54;5.07;;;4.57;;
5704;SDS011;2877;48.238;11.160;2023-05-07T01:39:21;4.73;;;4.33;;
5704;SDS011;2877;48.238;11.160;2023-05-07T01:41:49;5.40;;;4.90;;
5704;SDS011;2877;48.238;11.160;2023-05-07T01:44:15;4.47;;;4.10;;
5704;SDS011;2877;48.238;11.160;2023-05-07T01:46:41;5.50;;;4.97;;
5704;SDS011;2877;48.238;11.160;2023-05-07T01:49:07;7.47;;;5.57;;
5704;SDS011;2877;48.238;11.160;2023-05-07T01:51:33;5.37;;;4.87;;
5704;SDS011;2877;48.238;11.160;2023-05-07T01:53:59;6.20;;;4.73;;
5704;SDS011;2877;48.238;11.160;2023-05-07T01:56:25;5.03;;;4.53;;
5704;SDS011;2877;48.238;11.160;2023-05-07T01:58:50;5.20;;;4.70;;
5704;SDS011;2877;48.238;11.160;2023-05-07T02:01:17;5.13;;;4.70;;
5704;SDS011;2877;48.238;11.160;2023-05-07T02:03:43;5.10;;;4.60;;
5704;SDS011;2877;48.238;11.160;2023-05-07T02:06:09;8.20;;;5.17;;
5704;SDS011;2877;48.238;11.160;2023-05-07T02:08:35;6.13;;;5.53;;
5704;SDS011;2877;48.238;11.160;2023-05-07T02:11:00;8.77;;;6.47;;
5704;SDS011;2877;48.238;11.160;2023-05-07T02:13:28;7.00;;;6.30;;
5704;SDS011;2877;48.238;11.160;2023-05-07T02:15:55;7.90;;;7.10;;
5704;SDS011;2877;48.238;11.160;2023-05-07T02:18:20;7.90;;;7.10;;
5704;SDS011;2877;48.238;11.160;2023-05-07T02:20:46;7.60;;;6.80;;
5704;SDS011;2877;48.238;11.160;2023-05-07T02:23:11;7.70;;;6.53;;
5704;SDS011;2877;48.238;11.160;2023-05-07T02:25:37;7.70;;;6.77;;
5704;SDS011;2877;48.238;11.160;2023-05-07T02:28:03;7.03;;;6.33;;
5704;SDS011;2877;48.238;11.160;2023-05-07T02:30:28;7.30;;;6.53;;
5704;SDS011;2877;48.238;11.160;2023-05-07T02:32:54;10.70;;;6.17;;
5704;SDS011;2877;48.238;11.160;2023-05-07T02:35:20;8.23;;;5.87;;
5704;SDS011;2877;48.238;11.160;2023-05-07T02:37:45;8.90;;;6.10;;
5704;SDS011;2877;48.238;11.160;2023-05-07T02:40:11;6.70;;;6.00;;
5704;SDS011;2877;48.238;11.160;2023-05-07T02:42:37;5.73;;;5.23;;
5704;SDS011;2877;48.238;11.160;2023-05-07T02:45:02;5.70;;;5.17;;
5704;SDS011;2877;48.238;11.160;2023-05-07T02:47:28;7.73;;;5.80;;
5704;SDS011;2877;48.238;11.160;2023-05-07T02:49:54;8.67;;;6.30;;
5704;SDS011;2877;48.238;11.160;2023-05-07T02:52:20;6.20;;;5.60;;
5704;SDS011;2877;48.238;11.160;2023-05-07T02:54:46;6.03;;;5.50;;
5704;SDS011;2877;48.238;11.160;2023-05-07T02:57:12;11.43;;;6.30;;
5704;SDS011;2877;48.238;11.160;2023-05-07T02:59:37;9.80;;;7.17;;
5704;SDS011;2877;48.238;11.160;2023-05-07T03:02:03;6.53;;;5.73;;
5704;SDS011;2877;48.238;11.160;2023-05-07T03:04:28;6.73;;;5.90;;
5704;SDS011;2877;48.238;11.160;2023-05-07T03:06:54;8.13;;;5.97;;
5704;SDS011;2877;48.238;11.160;2023-05-07T03:09:20;7.30;;;6.30;;
5704;SDS011;2877;48.238;11.160;2023-05-07T03:11:45;6.40;;;5.80;;
5704;SDS011;2877;48.238;11.160;2023-05-07T03:14:11;10.80;;;6.53;;
5704;SDS011;2877;48.238;11.160;2023-05-07T03:16:37;7.67;;;6.23;;
5704;SDS011;2877;48.238;11.160;2023-05-07T03:19:03;8.70;;;6.53;;
5704;SDS011;2877;48.238;11.160;2023-05-07T03:21:28;8.37;;;7.53;;
5704;SDS011;2877;48.238;11.160;2023-05-07T03:23:55;15.13;;;7.73;;
5704;SDS011;2877;48.238;11.160;2023-05-07T03:26:21;11.03;;;7.00;;
5704;SDS011;2877;48.238;11.160;2023-05-07T03:28:46;7.13;;;6.43;;
5704;SDS011;2877;48.238;11.160;2023-05-07T03:31:12;7.03;;;6.23;;
5704;SDS011;2877;48.238;11.160;2023-05-07T03:33:39;7.90;;;7.10;;
5704;SDS011;2877;48.238;11.160;2023-05-07T03:36:21;7.00;;;6.30;;
5704;SDS011;2877;48.238;11.160;2023-05-07T03:38:47;7.73;;;7.03;;
5704;SDS011;2877;48.238;11.160;2023-05-07T03:41:14;7.50;;;6.27;;
5704;SDS011;2877;48.238;11.160;2023-05-07T03:43:39;9.20;;;5.80;;
5704;SDS011;2877;48.238;11.160;2023-05-07T03:46:05;5.70;;;5.20;;
5704;SDS011;2877;48.238;11.160;2023-05-07T03:48:30;6.60;;;5.90;;
5704;SDS011;2877;48.238;11.160;2023-05-07T03:50:57;6.40;;;5.80;;
5704;SDS011;2877;48.238;11.160;2023-05-07T03:53:23;6.07;;;5.40;;
5704;SDS011;2877;48.238;11.160;2023-05-07T03:55:49;7.20;;;5.60;;
5704;SDS011;2877;48.238;11.160;2023-05-07T03:58:15;6.27;;;5.67;;
5704;SDS011;2877;48.238;11.160;2023-05-07T04:00:40;6.53;;;5.83;;
5704;SDS011;2877;48.238;11.160;2023-05-07T04:03:06;6.50;;;5.90;;
5704;SDS011;2877;48.238;11.160;2023-05-07T04:05:32;5.30;;;4.90;;
5704;SDS011;2877;48.238;11.160;2023-05-07T04:07:58;6.00;;;5.40;;
5704;SDS011;2877;48.238;11.160;2023-05-07T04:10:24;7.40;;;5.90;;
5704;SDS011;2877;48.238;11.160;2023-05-07T04:12:50;5.50;;;5.00;;
5704;SDS011;2877;48.238;11.160;2023-05-07T04:15:16;7.23;;;5.20;;
5704;SDS011;2877;48.238;11.160;2023-05-07T04:17:42;6.50;;;4.60;;
5704;SDS011;2877;48.238;11.160;2023-05-07T04:20:12;6.67;;;6.00;;
5704;SDS011;2877;48.238;11.160;2023-05-07T04:22:39;6.80;;;6.07;;
5704;SDS011;2877;48.238;11.160;2023-05-07T04:25:05;6.63;;;5.93;;
5704;SDS011;2877;48.238;11.160;2023-05-07T04:27:31;6.27;;;5.67;;
5704;SDS011;2877;48.238;11.160;2023-05-07T04:29:57;7.67;;;6.30;;
5704;SDS011;2877;48.238;11.160;2023-05-07T04:32:22;6.50;;;5.90;;
5704;SDS011;2877;48.238;11.160;2023-05-07T04:34:49;10.67;;;6.07;;
5704;SDS011;2877;48.238;11.160;2023-05-07T04:37:15;9.90;;;7.80;;
5704;SDS011;2877;48.238;11.160;2023-05-07T04:39:40;10.07;;;8.53;;
5704;SDS011;2877;48.238;11.160;2023-05-07T04:42:06;11.17;;;9.30;;
5704;SDS011;2877;48.238;11.160;2023-05-07T04:44:34;9.80;;;8.80;;
5704;SDS011;2877;48.238;11.160;2023-05-07T04:47:01;11.60;;;8.83;;
5704;SDS011;2877;48.238;11.160;2023-05-07T04:49:27;9.53;;;7.30;;
5704;SDS011;2877;48.238;11.160;2023-05-07T04:51:53;8.53;;;7.00;;
5704;SDS011;2877;48.238;11.160;2023-05-07T04:54:18;9.20;;;7.10;;
5704;SDS011;2877;48.238;11.160;2023-05-07T04:56:44;10.10;;;7.50;;
5704;SDS011;2877;48.238;11.160;2023-05-07T04:59:09;7.83;;;7.13;;
5704;SDS011;2877;48.238;11.160;2023-05-07T05:01:35;10.73;;;8.30;;
5704;SDS011;2877;48.238;11.160;2023-05-07T05:04:00;12.70;;;8.30;;
5704;SDS011;2877;48.238;11.160;2023-05-07T05:06:26;9.17;;;8.27;;
5704;SDS011;2877;48.238;11.160;2023-05-07T05:08:51;10.77;;;9.30;;
5704;SDS011;2877;48.238;11.160;2023-05-07T05:11:17;10.13;;;9.03;;
5704;SDS011;2877;48.238;11.160;2023-05-07T05:13:42;11.63;;;9.83;;
5704;SDS011;2877;48.238;11.160;2023-05-07T05:16:08;11.47;;;7.67;;
5704;SDS011;2877;48.238;11.160;2023-05-07T05:18:34;14.33;;;7.03;;
5704;SDS011;2877;48.238;11.160;2023-05-07T05:20:59;8.07;;;7.00;;
5704;SDS011;2877;48.238;11.160;2023-05-07T05:23:25;7.90;;;6.87;;
5704;SDS011;2877;48.238;11.160;2023-05-07T05:25:54;7.87;;;7.00;;
5704;SDS011;2877;48.238;11.160;2023-05-07T05:28:23;8.00;;;7.20;;
5704;SDS011;2877;48.238;11.160;2023-05-07T05:30:49;8.90;;;7.40;;
5704;SDS011;2877;48.238;11.160;2023-05-07T05:33:15;8.37;;;7.10;;
5704;SDS011;2877;48.238;11.160;2023-05-07T05:35:41;10.90;;;8.53;;
5704;SDS011;2877;48.238;11.160;2023-05-07T05:38:07;9.80;;;8.80;;
5704;SDS011;2877;48.238;11.160;2023-05-07T05:40:32;10.30;;;8.13;;
5704;SDS011;2877;48.238;11.160;2023-05-07T05:42:58;8.30;;;7.33;;
5704;SDS011;2877;48.238;11.160;2023-05-07T05:45:24;10.17;;;8.97;;
5704;SDS011;2877;48.238;11.160;2023-05-07T05:47:50;10.37;;;9.27;;
5704;SDS011;2877;48.238;11.160;2023-05-07T05:50:15;11.43;;;8.80;;
5704;SDS011;2877;48.238;11.160;2023-05-07T05:52:41;10.30;;;8.67;;
5704;SDS011;2877;48.238;11.160;2023-05-07T05:55:07;9.53;;;8.60;;
5704;SDS011;2877;48.238;11.160;2023-05-07T05:57:33;12.37;;;8.17;;
5704;SDS011;2877;48.238;11.160;2023-05-07T05:59:59;12.73;;;7.13;;
5704;SDS011;2877;48.238;11.160;2023-05-07T06:02:25;8.20;;;7.30;;
5704;SDS011;2877;48.238;11.160;2023-05-07T06:04:51;9.20;;;6.70;;
5704;SDS011;2877;48.238;11.160;2023-05-07T06:07:16;6.40;;;5.80;;
5704;SDS011;2877;48.238;11.160;2023-05-07T06:09:42;8.00;;;7.23;;
5704;SDS011;2877;48.238;11.160;2023-05-07T06:12:07;10.37;;;8.27;;
5704;SDS011;2877;48.238;11.160;2023-05-07T06:14:33;8.33;;;7.53;;
5704;SDS011;2877;48.238;11.160;2023-05-07T06:16:58;8.10;;;7.30;;
5704;SDS011;2877;48.238;11.160;2023-05-07T06:19:24;8.73;;;7.83;;
5704;SDS011;2877;48.238;11.160;2023-05-07T06:21:51;8.73;;;7.40;;
5704;SDS011;2877;48.238;11.160;2023-05-07T06:24:17;7.77;;;6.97;;
5704;SDS011;2877;48.238;11.160;2023-05-07T06:26:42;7.03;;;6.33;;
5704;SDS011;2877;48.238;11.160;2023-05-07T06:29:08;7.50;;;6.70;;
5704;SDS011;2877;48.238;11.160;2023-05-07T06:31:33;10.10;;;6.40;;
5704;SDS011;2877;48.238;11.160;2023-05-07T06:33:59;11.63;;;7.40;;
5704;SDS011;2877;48.238;11.160;2023-05-07T06:36:27;8.07;;;7.10;;
5704;SDS011;2877;48.238;11.160;2023-05-07T06:38:53;8.40;;;7.00;;
5704;SDS011;2877;48.238;11.160;2023-05-07T06:41:18;11.90;;;8.03;;
5704;SDS011;2877;48.238;11.160;2023-05-07T06:43:44;10.70;;;7.53;;
5704;SDS011;2877;48.238;11.160;2023-05-07T06:46:09;11.07;;;7.37;;
5704;SDS011;2877;48.238;11.160;2023-05-07T06:48:35;8.00;;;6.90;;
5704;SDS011;2877;48.238;11.160;2023-05-07T06:51:00;9.57;;;6.83;;
5704;SDS011;2877;48.238;11.160;2023-05-07T06:53:26;9.10;;;6.87;;
5704;SDS011;2877;48.238;11.160;2023-05-07T06:55:53;7.90;;;6.50;;
5704;SDS011;2877;48.238;11.160;2023-05-07T06:58:19;6.53;;;5.93;;
5704;SDS011;2877;48.238;11.160;2023-05-07T07:00:44;7.10;;;6.40;;
5704;SDS011;2877;48.238;11.160;2023-05-07T07:03:10;6.67;;;5.73;;
5704;SDS011;2877;48.238;11.160;2023-05-07T07:05:36;7.13;;;6.43;;
5704;SDS011;2877;48.238;11.160;2023-05-07T07:08:02;6.67;;;6.07;;
5704;SDS011;2877;48.238;11.160;2023-05-07T07:10:27;7.70;;;6.33;;
5704;SDS011;2877;48.238;11.160;2023-05-07T07:12:53;6.17;;;5.17;;
5704;SDS011;2877;48.238;11.160;2023-05-07T07:15:19;5.90;;;5.00;;
5704;SDS011;2877;48.238;11.160;2023-05-07T07:17:45;7.23;;;5.50;;
5704;SDS011;2877;48.238;11.160;2023-05-07T07:20:11;5.90;;;5.40;;
5704;SDS011;2877;48.238;11.160;2023-05-07T07:22:36;6.40;;;5.20;;
5704;SDS011;2877;48.238;11.160;2023-05-07T07:25:02;9.77;;;5.80;;
5704;SDS011;2877;48.238;11.160;2023-05-07T07:27:28;5.87;;;5.30;;
5704;SDS011;2877;48.238;11.160;2023-05-07T07:29:53;6.90;;;5.50;;
5704;SDS011;2877;48.238;11.160;2023-05-07T07:32:19;6.97;;;5.57;;
5704;SDS011;2877;48.238;11.160;2023-05-07T07:34:45;5.77;;;5.20;;
5704;SDS011;2877;48.238;11.160;2023-05-07T07:37:11;7.50;;;5.60;;
5704;SDS011;2877;48.238;11.160;2023-05-07T07:39:36;5.73;;;5.20;;
5704;SDS011;2877;48.238;11.160;2023-05-07T07:42:06;6.60;;;5.80;;
5704;SDS011;2877;48.238;11.160;2023-05-07T07:44:31;5.10;;;4.63;;
5704;SDS011;2877;48.238;11.160;2023-05-07T07:46:57;5.70;;;5.20;;
5704;SDS011;2877;48.238;11.160;2023-05-07T07:49:22;6.10;;;5.50;;
5704;SDS011;2877;48.238;11.160;2023-05-07T07:51:48;6.13;;;5.47;;
5704;SDS011;2877;48.238;11.160;2023-05-07T07:54:13;6.77;;;6.17;;
5704;SDS011;2877;48.238;11.160;2023-05-07T07:56:39;9.87;;;5.50;;
5704;SDS011;2877;48.238;11.160;2023-05-07T07:59:04;6.67;;;5.50;;
5704;SDS011;2877;48.238;11.160;2023-05-07T08:01:30;10.37;;;5.83;;
5704;SDS011;2877;48.238;11.160;2023-05-07T08:03:56;13.93;;;7.53;;
5704;SDS011;2877;48.238;11.160;2023-05-07T08:06:23;8.77;;;7.20;;
5704;SDS011;2877;48.238;11.160;2023-05-07T08:08:50;8.50;;;6.90;;
5704;SDS011;2877;48.238;11.160;2023-05-07T08:11:16;8.13;;;7.37;;
5704;SDS011;2877;48.238;11.160;2023-05-07T08:13:41;8.60;;;7.30;;
5704;SDS011;2877;48.238;11.160;2023-05-07T08:16:07;9.90;;;7.40;;
5704;SDS011;2877;48.238;11.160;2023-05-07T08:18:33;7.87;;;7.00;;
5704;SDS011;2877;48.238;11.160;2023-05-07T08:20:59;7.50;;;6.70;;
5704;SDS011;2877;48.238;11.160;2023-05-07T08:23:24;9.00;;;7.30;;
5704;SDS011;2877;48.238;11.160;2023-05-07T08:25:50;7.90;;;6.90;;
5704;SDS011;2877;48.238;11.160;2023-05-07T08:28:16;7.80;;;6.73;;
5704;SDS011;2877;48.238;11.160;2023-05-07T08:30:41;6.83;;;6.10;;
5704;SDS011;2877;48.238;11.160;2023-05-07T08:33:08;7.70;;;6.27;;
5704;SDS011;2877;48.238;11.160;2023-05-07T08:35:34;7.03;;;5.80;;
5704;SDS011;2877;48.238;11.160;2023-05-07T08:38:00;6.50;;;5.80;;
5704;SDS011;2877;48.238;11.160;2023-05-07T08:40:26;7.20;;;5.67;;
5704;SDS011;2877;48.238;11.160;2023-05-07T08:42:52;7.40;;;5.70;;
5704;SDS011;2877;48.238;11.160;2023-05-07T08:45:19;8.37;;;5.10;;
5704;SDS011;2877;48.238;11.160;2023-05-07T08:47:54;6.80;;;6.20;;
5704;SDS011;2877;48.238;11.160;2023-05-07T08:50:23;5.97;;;5.40;;
5704;SDS011;2877;48.238;11.160;2023-05-07T08:52:49;7.90;;;5.60;;
5704;SDS011;2877;48.238;11.160;2023-05-07T08:55:15;6.17;;;5.67;;
5704;SDS011;2877;48.238;11.160;2023-05-07T08:57:41;6.23;;;4.80;;
5704;SDS011;2877;48.238;11.160;2023-05-07T09:00:07;5.53;;;5.00;;
5704;SDS011;2877;48.238;11.160;2023-05-07T09:02:34;6.20;;;5.30;;
5704;SDS011;2877;48.238;11.160;2023-05-07T09:05:00;7.93;;;5.17;;
5704;SDS011;2877;48.238;11.160;2023-05-07T09:07:26;5.50;;;4.70;;
5704;SDS011;2877;48.238;11.160;2023-05-07T09:09:52;4.67;;;4.27;;
5704;SDS011;2877;48.238;11.160;2023-05-07T09:12:20;5.70;;;4.40;;
5704;SDS011;2877;48.238;11.160;2023-05-07T09:14:46;12.17;;;4.63;;
5704;SDS011;2877;48.238;11.160;2023-05-07T09:17:12;6.40;;;4.60;;
5704;SDS011;2877;48.238;11.160;2023-05-07T09:19:38;6.37;;;4.40;;
5704;SDS011;2877;48.238;11.160;2023-05-07T09:22:04;4.77;;;4.20;;
5704;SDS011;2877;48.238;11.160;2023-05-07T09:24:32;5.23;;;4.73;;
5704;SDS011;2877;48.238;11.160;2023-05-07T09:27:06;5.17;;;4.07;;
5704;SDS011;2877;48.238;11.160;2023-05-07T09:29:33;5.20;;;4.70;;
5704;SDS011;2877;48.238;11.160;2023-05-07T09:32:02;4.03;;;3.77;;
5704;SDS011;2877;48.238;11.160;2023-05-07T09:34:32;5.50;;;4.07;;
5704;SDS011;2877;48.238;11.160;2023-05-07T09:37:01;4.30;;;4.00;;
5704;SDS011;2877;48.238;11.160;2023-05-07T09:39:44;2.90;;;2.70;;
5704;SDS011;2877;48.238;11.160;2023-05-07T09:42:11;4.20;;;3.17;;
5704;SDS011;2877;48.238;11.160;2023-05-07T09:44:37;3.57;;;2.73;;
5704;SDS011;2877;48.238;11.160;2023-05-07T09:47:06;3.23;;;3.00;;
5704;SDS011;2877;48.238;11.160;2023-05-07T09:49:36;5.53;;;3.50;;
5704;SDS011;2877;48.238;11.160;2023-05-07T09:52:05;3.73;;;3.43;;
5704;SDS011;2877;48.238;11.160;2023-05-07T09:54:33;4.10;;;3.70;;
5704;SDS011;2877;48.238;11.160;2023-05-07T09:57:02;5.17;;;3.40;;
5704;SDS011;2877;48.238;11.160;2023-05-07T09:59:31;2.90;;;2.67;;
5704;SDS011;2877;48.238;11.160;2023-05-07T10:01:57;8.93;;;3.20;;
5704;SDS011;2877;48.238;11.160;2023-05-07T10:04:27;3.70;;;3.33;;
5704;SDS011;2877;48.238;11.160;2023-05-07T10:06:53;3.77;;;3.00;;
5704;SDS011;2877;48.238;11.160;2023-05-07T10:09:20;2.90;;;2.40;;
5704;SDS011;2877;48.238;11.160;2023-05-07T10:11:46;4.60;;;2.97;;
5704;SDS011;2877;48.238;11.160;2023-05-07T10:14:14;4.63;;;2.40;;
5704;SDS011;2877;48.238;11.160;2023-05-07T10:16:40;3.77;;;2.57;;
5704;SDS011;2877;48.238;11.160;2023-05-07T10:19:07;5.60;;;2.43;;
5704;SDS011;2877;48.238;11.160;2023-05-07T10:21:36;2.60;;;2.50;;
5704;SDS011;2877;48.238;11.160;2023-05-07T10:24:08;3.27;;;2.50;;
5704;SDS011;2877;48.238;11.160;2023-05-07T10:26:42;6.57;;;2.07;;
5704;SDS011;2877;48.238;11.160;2023-05-07T10:35:16;2.70;;;2.50;;
5704;SDS011;2877;48.238;11.160;2023-05-07T10:37:44;2.93;;;2.73;;
5704;SDS011;2877;48.238;11.160;2023-05-07T10:40:11;3.17;;;2.87;;
5704;SDS011;2877;48.238;11.160;2023-05-07T10:42:37;4.37;;;3.97;;
5704;SDS011;2877;48.238;11.160;2023-05-07T10:45:12;5.67;;;2.63;;
5704;SDS011;2877;48.238;11.160;2023-05-07T10:48:05;6.97;;;2.37;;
5704;SDS011;2877;48.238;11.160;2023-05-07T10:50:31;2.87;;;2.67;;
5704;SDS011;2877;48.238;11.160;2023-05-07T10:55:44;2.80;;;2.60;;
5704;SDS011;2877;48.238;11.160;2023-05-07T10:58:22;7.20;;;3.17;;
5704;SDS011;2877;48.238;11.160;2023-05-07T11:01:01;3.33;;;2.30;;
5704;SDS011;2877;48.238;11.160;2023-05-07T11:03:27;6.00;;;2.63;;
5704;SDS011;2877;48.238;11.160;2023-05-07T11:11:16;2.30;;;1.80;;
5704;SDS011;2877;48.238;11.160;2023-05-07T11:13:46;2.20;;;2.00;;
5704;SDS011;2877;48.238;11.160;2023-05-07T11:16:22;3.77;;;2.00;;
5704;SDS011;2877;48.238;11.160;2023-05-07T11:18:50;2.20;;;2.00;;
5704;SDS011;2877;48.238;11.160;2023-05-07T11:21:35;1.70;;;1.60;;
5704;SDS011;2877;48.238;11.160;2023-05-07T11:24:06;2.40;;;2.20;;
5704;SDS011;2877;48.238;11.160;2023-05-07T11:26:43;2.23;;;2.03;;
5704;SDS011;2877;48.238;11.160;2023-05-07T11:29:14;1.90;;;1.80;;
5704;SDS011;2877;48.238;11.160;2023-05-07T11:31:41;2.07;;;1.97;;
5704;SDS011;2877;48.238;11.160;2023-05-07T11:34:07;4.00;;;2.20;;
5704;SDS011;2877;48.238;11.160;2023-05-07T11:36:33;2.13;;;2.00;;
5704;SDS011;2877;48.238;11.160;2023-05-07T11:38:59;5.50;;;2.30;;
5704;SDS011;2877;48.238;11.160;2023-05-07T11:41:35;2.77;;;2.10;;
5704;SDS011;2877;48.238;11.160;2023-05-07T11:44:01;2.43;;;2.00;;
5704;SDS011;2877;48.238;11.160;2023-05-07T11:46:27;1.97;;;1.40;;
5704;SDS011;2877;48.238;11.160;2023-05-07T11:48:53;3.83;;;2.00;;
5704;SDS011;2877;48.238;11.160;2023-05-07T11:51:23;2.43;;;2.23;;
5704;SDS011;2877;48.238;11.160;2023-05-07T11:53:51;2.10;;;1.90;;
5704;SDS011;2877;48.238;11.160;2023-05-07T11:56:17;3.03;;;1.80;;
5704;SDS011;2877;48.238;11.160;2023-05-07T11:58:44;2.40;;;1.93;;
5704;SDS011;2877;48.238;11.160;2023-05-07T12:01:11;2.40;;;1.90;;
5704;SDS011;2877;48.238;11.160;2023-05-07T12:03:39;5.40;;;1.90;;
5704;SDS011;2877;48.238;11.160;2023-05-07T12:06:07;1.73;;;1.63;;
5704;SDS011;2877;48.238;11.160;2023-05-07T12:08:35;5.23;;;2.27;;
5704;SDS011;2877;48.238;11.160;2023-05-07T12:11:03;1.70;;;1.50;;
5704;SDS011;2877;48.238;11.160;2023-05-07T12:13:31;1.70;;;1.60;;
5704;SDS011;2877;48.238;11.160;2023-05-07T12:15:57;1.60;;;1.50;;
5704;SDS011;2877;48.238;11.160;2023-05-07T12:18:22;2.60;;;1.60;;
5704;SDS011;2877;48.238;11.160;2023-05-07T12:20:48;1.93;;;1.50;;
5704;SDS011;2877;48.238;11.160;2023-05-07T12:23:15;8.33;;;1.80;;
5704;SDS011;2877;48.238;11.160;2023-05-07T12:25:41;1.83;;;1.53;;
5704;SDS011;2877;48.238;11.160;2023-05-07T12:28:15;2.63;;;1.60;;
5704;SDS011;2877;48.238;11.160;2023-05-07T12:30:42;2.20;;;1.50;;
5704;SDS011;2877;48.238;11.160;2023-05-07T12:33:09;3.33;;;1.70;;
5704;SDS011;2877;48.238;11.160;2023-05-07T12:35:39;1.53;;;1.43;;
5704;SDS011;2877;48.238;11.160;2023-05-07T12:38:09;3.37;;;1.73;;
5704;SDS011;2877;48.238;11.160;2023-05-07T12:40:36;1.50;;;1.40;;
5704;SDS011;2877;48.238;11.160;2023-05-07T12:43:03;5.50;;;1.70;;
5704;SDS011;2877;48.238;11.160;2023-05-07T12:45:29;6.07;;;1.83;;
5704;SDS011;2877;48.238;11.160;2023-05-07T12:47:54;1.63;;;1.53;;
5704;SDS011;2877;48.238;11.160;2023-05-07T12:50:21;1.73;;;1.63;;
5704;SDS011;2877;48.238;11.160;2023-05-07T12:52:47;1.57;;;1.30;;
5704;SDS011;2877;48.238;11.160;2023-05-07T12:55:16;1.30;;;1.20;;
5704;SDS011;2877;48.238;11.160;2023-05-07T12:57:43;2.83;;;1.50;;
5704;SDS011;2877;48.238;11.160;2023-05-07T13:00:12;1.83;;;1.50;;
5704;SDS011;2877;48.238;11.160;2023-05-07T13:02:39;2.53;;;1.40;;
5704;SDS011;2877;48.238;11.160;2023-05-07T13:05:06;1.73;;;1.60;;
5704;SDS011;2877;48.238;11.160;2023-05-07T13:07:32;2.40;;;1.63;;
5704;SDS011;2877;48.238;11.160;2023-05-07T13:09:58;1.63;;;1.53;;
5704;SDS011;2877;48.238;11.160;2023-05-07T13:12:23;1.93;;;1.30;;
5704;SDS011;2877;48.238;11.160;2023-05-07T13:14:49;2.23;;;1.53;;
5704;SDS011;2877;48.238;11.160;2023-05-07T13:17:14;2.40;;;1.80;;
5704;SDS011;2877;48.238;11.160;2023-05-07T13:19:40;1.60;;;1.50;;
5704;SDS011;2877;48.238;11.160;2023-05-07T13:22:05;2.30;;;1.57;;
5704;SDS011;2877;48.238;11.160;2023-05-07T13:24:31;8.23;;;2.13;;
5704;SDS011;2877;48.238;11.160;2023-05-07T13:26:56;2.10;;;1.63;;
5704;SDS011;2877;48.238;11.160;2023-05-07T13:29:22;3.33;;;1.90;;
5704;SDS011;2877;48.238;11.160;2023-05-07T13:31:54;2.93;;;2.73;;
5704;SDS011;2877;48.238;11.160;2023-05-07T13:34:23;1.93;;;1.83;;
5704;SDS011;2877;48.238;11.160;2023-05-07T13:36:49;3.57;;;1.80;;
5704;SDS011;2877;48.238;11.160;2023-05-07T13:39:15;3.00;;;1.67;;
5704;SDS011;2877;48.238;11.160;2023-05-07T13:41:40;1.87;;;1.77;;
5704;SDS011;2877;48.238;11.160;2023-05-07T13:44:06;2.80;;;2.10;;
5704;SDS011;2877;48.238;11.160;2023-05-07T13:46:31;1.90;;;1.80;;
5704;SDS011;2877;48.238;11.160;2023-05-07T13:48:57;2.90;;;1.87;;
5704;SDS011;2877;48.238;11.160;2023-05-07T13:51:23;2.20;;;1.90;;
5704;SDS011;2877;48.238;11.160;2023-05-07T13:53:48;2.20;;;2.10;;
5704;SDS011;2877;48.238;11.160;2023-05-07T13:56:14;2.90;;;2.60;;
5704;SDS011;2877;48.238;11.160;2023-05-07T13:58:40;2.90;;;2.70;;
5704;SDS011;2877;48.238;11.160;2023-05-07T14:01:05;2.37;;;2.27;;
5704;SDS011;2877;48.238;11.160;2023-05-07T14:03:31;5.20;;;2.77;;
5704;SDS011;2877;48.238;11.160;2023-05-07T14:05:58;2.47;;;2.30;;
5704;SDS011;2877;48.238;11.160;2023-05-07T14:08:26;2.33;;;2.23;;
5704;SDS011;2877;48.238;11.160;2023-05-07T14:10:52;2.03;;;1.83;;
5704;SDS011;2877;48.238;11.160;2023-05-07T14:13:17;2.10;;;1.90;;
5704;SDS011;2877;48.238;11.160;2023-05-07T14:15:43;3.60;;;2.40;;
5704;SDS011;2877;48.238;11.160;2023-05-07T14:18:12;3.73;;;2.03;;
5704;SDS011;2877;48.238;11.160;2023-05-07T14:20:37;1.93;;;1.83;;
5704;SDS011;2877;48.238;11.160;2023-05-07T14:23:03;3.00;;;2.30;;
5704;SDS011;2877;48.238;11.160;2023-05-07T14:25:29;3.83;;;1.97;;
5704;SDS011;2877;48.238;11.160;2023-05-07T14:27:55;4.60;;;2.90;;
5704;SDS011;2877;48.238;11.160;2023-05-07T14:30:21;2.30;;;2.20;;
5704;SDS011;2877;48.238;11.160;2023-05-07T14:32:49;3.97;;;2.40;;
5704;SDS011;2877;48.238;11.160;2023-05-07T14:35:15;5.70;;;2.60;;
5704;SDS011;2877;48.238;11.160;2023-05-07T14:37:40;2.73;;;2.53;;
5704;SDS011;2877;48.238;11.160;2023-05-07T14:40:06;2.87;;;2.50;;
5704;SDS011;2877;48.238;11.160;2023-05-07T14:42:32;3.30;;;3.00;;
5704;SDS011;2877;48.238;11.160;2023-05-07T14:44:58;5.93;;;2.50;;
5704;SDS011;2877;48.238;11.160;2023-05-07T14:47:23;4.50;;;2.37;;
5704;SDS011;2877;48.238;11.160;2023-05-07T14:49:49;2.50;;;2.30;;
5704;SDS011;2877;48.238;11.160;2023-05-07T14:52:14;2.57;;;2.40;;
5704;SDS011;2877;48.238;11.160;2023-05-07T14:54:40;2.60;;;2.40;;
5704;SDS011;2877;48.238;11.160;2023-05-07T14:57:06;3.33;;;2.60;;
5704;SDS011;2877;48.238;11.160;2023-05-07T14:59:33;2.47;;;2.27;;
5704;SDS011;2877;48.238;11.160;2023-05-07T15:01:58;2.63;;;2.27;;
5704;SDS011;2877;48.238;11.160;2023-05-07T15:04:24;3.20;;;2.00;;
5704;SDS011;2877;48.238;11.160;2023-05-07T15:06:50;2.57;;;2.37;;
5704;SDS011;2877;48.238;11.160;2023-05-07T15:09:17;3.03;;;2.47;;
5704;SDS011;2877;48.238;11.160;2023-05-07T15:11:42;3.27;;;2.23;;